Time;durP1;ratioP1;P1;durP2;ratioP2;P2;SDS_P1;SDS_P2;PMS_P1;PMS_P2;Temp;Humidity;BMP_temperature;BMP_pressure;BME280_temperature;BME280_humidity;BME280_pressure;Samples;Min_cycle;Max_cycle;Signal;HPM_P1;HPM_P2
2022/01/04 00:00:45;;;;;;;32.55;5.70;;;6.80;99.90;;;;;;4943765;29;20517;-49
2022/01/04 00:03:11;;;;;;;28.25;6.50;;;6.80;99.90;;;;;;4923245;29;20066;-49
2022/01/04 00:05:37;;;;;;;34.45;6.20;;;6.80;99.90;;;;;;4943814;29;20093;-51
2022/01/04 00:08:08;;;;;;;31.98;6.03;;;6.90;99.90;;;;;;4944553;29;20085;-47
2022/01/04 00:10:34;;;;;;;32.05;6.05;;;7.00;99.90;;;;;;4926287;29;20066;-49
2022/01/04 00:15:44;;;;;;;30.42;5.50;;;7.00;99.90;;;;;;4944354;29;20055;-48
2022/01/04 00:18:11;;;;;;;28.05;6.40;;;7.10;99.90;;;;;;4926100;29;20055;-49
2022/01/04 00:20:40;;;;;;;34.45;5.30;;;7.10;99.90;;;;;;4935705;28;20565;-47
2022/01/04 00:23:06;;;;;;;33.17;6.18;;;7.20;99.90;;;;;;4926287;29;20528;-48
2022/01/04 00:25:32;;;;;;;28.88;5.88;;;7.20;99.90;;;;;;4923535;29;20047;-49
2022/01/04 00:27:58;;;;;;;33.03;5.30;;;7.30;99.90;;;;;;4943961;28;20430;-48
2022/01/04 00:30:28;;;;;;;31.95;5.65;;;7.20;99.90;;;;;;4940377;29;20556;-48
2022/01/04 00:32:55;;;;;;;25.92;5.88;;;7.20;99.90;;;;;;4926250;29;20050;-47
2022/01/04 00:35:20;;;;;;;36.08;6.00;;;7.20;99.90;;;;;;4939235;28;20070;-48
2022/01/04 00:37:46;;;;;;;25.15;6.28;;;7.20;99.90;;;;;;4944403;29;20573;-48
2022/01/04 00:40:12;;;;;;;34.22;6.38;;;7.10;99.90;;;;;;4940069;29;20102;-48
2022/01/04 00:42:38;;;;;;;31.23;6.30;;;7.00;99.90;;;;;;4942402;28;20194;-49
2022/01/04 00:45:04;;;;;;;31.33;6.55;;;7.10;99.90;;;;;;4939039;29;20051;-48
2022/01/04 00:47:44;;;;;;;34.60;6.30;;;7.10;99.90;;;;;;4942930;28;20655;-47
2022/01/04 00:50:09;;;;;;;33.55;6.68;;;7.10;99.90;;;;;;4942727;29;20154;-48
2022/01/04 00:52:35;;;;;;;34.53;6.72;;;7.00;99.90;;;;;;4935351;29;20372;-48
2022/01/04 00:55:01;;;;;;;44.53;8.77;;;7.00;99.90;;;;;;4909827;29;20114;-49
2022/01/04 00:57:27;;;;;;;32.42;6.45;;;7.10;99.90;;;;;;4943706;29;20651;-47
2022/01/04 00:59:52;;;;;;;36.35;6.30;;;7.00;99.90;;;;;;4938232;29;20557;-49
2022/01/04 01:02:18;;;;;;;32.65;7.07;;;7.00;99.90;;;;;;4941875;29;20158;-48
2022/01/04 01:04:44;;;;;;;41.35;7.65;;;7.10;99.90;;;;;;4945850;28;20046;-47
2022/01/04 01:07:10;;;;;;;33.00;7.03;;;7.10;99.90;;;;;;4947098;28;20043;-48
2022/01/04 01:09:44;;;;;;;30.38;7.57;;;7.10;99.90;;;;;;4938272;29;20052;-48
2022/01/04 01:12:11;;;;;;;26.08;7.80;;;7.10;99.90;;;;;;4925556;29;20056;-50
2022/01/04 01:14:37;;;;;;;28.48;7.68;;;7.00;99.90;;;;;;4943932;29;20059;-49
2022/01/04 01:17:02;;;;;;;41.58;7.88;;;7.10;99.90;;;;;;4943709;28;20040;-48
2022/01/04 01:19:28;;;;;;;32.17;8.57;;;7.10;99.90;;;;;;4948058;28;20058;-48
2022/01/04 01:21:54;;;;;;;46.33;8.65;;;7.10;99.90;;;;;;4943606;28;20489;-50
2022/01/04 01:24:20;;;;;;;30.95;8.20;;;7.20;99.90;;;;;;4938959;28;20096;-49
2022/01/04 01:26:45;;;;;;;35.20;7.68;;;7.10;99.90;;;;;;4934925;28;20051;-48
2022/01/04 01:29:11;;;;;;;34.75;7.57;;;7.10;99.90;;;;;;4943949;28;20091;-49
2022/01/04 01:31:37;;;;;;;40.72;8.63;;;7.10;99.90;;;;;;4946584;28;20055;-51
2022/01/04 01:34:03;;;;;;;35.28;7.50;;;7.10;99.90;;;;;;4927627;29;20600;-48
2022/01/04 01:36:29;;;;;;;40.67;6.97;;;7.10;99.90;;;;;;4946448;28;20142;-49
2022/01/04 01:38:54;;;;;;;37.60;6.95;;;7.00;99.90;;;;;;4946931;28;20470;-47
2022/01/04 01:41:20;;;;;;;37.95;7.82;;;7.00;99.90;;;;;;4945938;28;20059;-47
2022/01/04 01:43:47;;;;;;;30.85;7.07;;;7.00;99.90;;;;;;4945829;29;20382;-49
2022/01/04 01:46:13;;;;;;;36.33;7.85;;;7.00;99.90;;;;;;4945041;28;20110;-48
2022/01/04 01:48:38;;;;;;;27.30;6.63;;;7.00;99.90;;;;;;4947006;28;20363;-48
2022/01/04 01:51:05;;;;;;;33.45;7.50;;;7.00;99.90;;;;;;4946393;28;20055;-48
2022/01/04 01:53:31;;;;;;;36.42;7.18;;;7.10;99.90;;;;;;4945834;29;20039;-49
2022/01/04 01:55:58;;;;;;;43.55;7.47;;;7.10;99.90;;;;;;4946613;28;20106;-49
2022/01/04 01:58:23;;;;;;;30.67;6.90;;;7.10;99.90;;;;;;4946363;28;20097;-48
2022/01/04 02:00:49;;;;;;;29.60;7.38;;;7.10;99.90;;;;;;4923367;29;20051;-47
2022/01/04 02:03:15;;;;;;;33.50;6.88;;;7.10;99.90;;;;;;4934838;29;20094;-48
2022/01/04 02:05:41;;;;;;;33.25;7.90;;;7.10;99.90;;;;;;4927482;29;20051;-48
2022/01/04 02:08:08;;;;;;;33.47;7.00;;;7.10;99.90;;;;;;4946925;29;20054;-48
2022/01/04 02:10:33;;;;;;;38.08;7.03;;;7.00;99.90;;;;;;4946719;29;20047;-48
2022/01/04 02:13:00;;;;;;;34.90;7.70;;;7.00;99.90;;;;;;4929541;29;20051;-51
2022/01/04 02:15:26;;;;;;;34.55;6.72;;;7.00;99.90;;;;;;4929012;29;20043;-48
2022/01/04 02:17:52;;;;;;;34.42;7.65;;;7.00;99.90;;;;;;4945612;29;20106;-50
2022/01/04 02:20:19;;;;;;;35.53;7.18;;;7.00;99.90;;;;;;4927794;29;20664;-49
2022/01/04 02:22:45;;;;;;;36.17;6.57;;;7.00;99.90;;;;;;4944855;29;20058;-49
2022/01/04 02:25:11;;;;;;;36.13;7.18;;;7.00;99.90;;;;;;4944910;29;20482;-51
2022/01/04 02:27:40;;;;;;;34.92;7.35;;;7.00;99.90;;;;;;4928047;29;20063;-48
2022/01/04 02:30:09;;;;;;;37.03;8.13;;;6.90;99.90;;;;;;4946960;29;20043;-51
2022/01/04 02:32:35;;;;;;;38.20;7.63;;;6.90;99.90;;;;;;4928916;29;20570;-48
2022/01/04 02:35:01;;;;;;;29.88;7.90;;;6.90;99.90;;;;;;4946327;28;20047;-49
2022/01/04 02:37:28;;;;;;;39.30;7.78;;;6.90;99.90;;;;;;4945855;29;20051;-54
2022/01/04 02:39:55;;;;;;;36.92;8.40;;;6.90;99.90;;;;;;4927113;28;20090;-48
2022/01/04 02:42:22;;;;;;;39.38;8.10;;;7.00;99.90;;;;;;4927715;29;20065;-48
2022/01/04 02:44:48;;;;;;;38.22;8.95;;;6.90;99.90;;;;;;4944369;28;20058;-48
2022/01/04 02:47:14;;;;;;;38.85;8.32;;;7.00;99.90;;;;;;4917231;29;20422;-47
2022/01/04 02:49:41;;;;;;;46.30;8.68;;;6.90;99.90;;;;;;4944548;28;20054;-48
2022/01/04 02:52:07;;;;;;;45.17;8.45;;;7.00;99.90;;;;;;4938274;28;20058;-47
2022/01/04 02:54:33;;;;;;;37.03;8.05;;;6.90;99.90;;;;;;4937569;28;20230;-48
2022/01/04 02:56:59;;;;;;;35.65;7.30;;;6.90;99.90;;;;;;4911552;29;20063;-49
2022/01/04 02:59:25;;;;;;;39.03;8.35;;;6.80;99.90;;;;;;4927086;29;20187;-47
2022/01/04 03:01:51;;;;;;;39.55;8.45;;;6.80;99.90;;;;;;4946707;28;20136;-48
2022/01/04 03:04:17;;;;;;;39.13;7.65;;;6.90;99.90;;;;;;4936724;28;20556;-48
2022/01/04 03:06:42;;;;;;;33.53;8.55;;;6.90;99.90;;;;;;4944631;29;20054;-47
2022/01/04 03:09:08;;;;;;;33.03;8.25;;;6.90;99.90;;;;;;4944304;29;20125;-48
2022/01/04 03:11:35;;;;;;;38.78;8.77;;;6.90;99.90;;;;;;4911984;29;20058;-48
2022/01/04 03:14:00;;;;;;;36.40;7.75;;;6.90;99.90;;;;;;4945628;29;20094;-48
2022/01/04 03:16:26;;;;;;;42.17;8.73;;;6.90;99.90;;;;;;4944073;28;20130;-48
2022/01/04 03:19:06;;;;;;;35.05;8.63;;;7.00;99.90;;;;;;4925651;29;20142;-51
2022/01/04 03:21:36;;;;;;;31.45;7.97;;;6.90;99.90;;;;;;4944361;29;20170;-49
2022/01/04 03:24:04;;;;;;;44.33;8.48;;;7.00;99.90;;;;;;4944156;29;20055;-48
2022/01/04 03:26:30;;;;;;;35.70;9.05;;;7.00;99.90;;;;;;4944945;28;20443;-51
2022/01/04 03:28:57;;;;;;;39.35;8.75;;;7.00;99.90;;;;;;4945365;29;20549;-48
2022/01/04 03:31:24;;;;;;;38.78;9.40;;;7.10;99.90;;;;;;4945316;29;20047;-48
2022/01/04 03:33:49;;;;;;;39.50;8.60;;;7.10;99.90;;;;;;4928801;29;20059;-49
2022/01/04 03:36:15;;;;;;;31.23;9.43;;;7.10;99.90;;;;;;4927324;29;20055;-48
2022/01/04 03:38:42;;;;;;;44.65;10.32;;;7.10;99.90;;;;;;4945350;29;20047;-51
2022/01/04 03:41:09;;;;;;;33.08;9.38;;;7.10;99.90;;;;;;4944818;29;20051;-51
2022/01/04 03:43:37;;;;;;;31.20;7.75;;;7.10;99.90;;;;;;4945749;29;20051;-49
2022/01/04 03:46:07;;;;;;;44.50;10.60;;;7.20;99.90;;;;;;4948222;28;20051;-48
2022/01/04 03:48:36;;;;;;;35.28;8.98;;;7.20;99.90;;;;;;4945882;29;20129;-56
2022/01/04 03:51:03;;;;;;;36.25;8.85;;;7.20;99.90;;;;;;4942137;28;20172;-52
2022/01/04 03:53:29;;;;;;;39.60;9.00;;;7.20;99.90;;;;;;4942462;28;20121;-50
2022/01/04 03:55:55;;;;;;;29.65;7.95;;;7.20;99.90;;;;;;4926531;28;20166;-48
2022/01/04 03:58:21;;;;;;;34.72;10.00;;;7.20;99.90;;;;;;4944158;29;20600;-49
2022/01/04 04:00:47;;;;;;;35.97;7.95;;;7.20;99.90;;;;;;4941255;28;20604;-49
2022/01/04 04:03:13;;;;;;;37.15;8.43;;;7.20;99.90;;;;;;4943715;29;20043;-48
2022/01/04 04:05:38;;;;;;;38.55;7.55;;;7.20;99.90;;;;;;4943796;28;20043;-48
2022/01/04 04:08:04;;;;;;;32.38;8.13;;;7.20;99.90;;;;;;4943825;29;20146;-48
2022/01/04 04:10:30;;;;;;;36.75;7.72;;;7.20;99.90;;;;;;4924597;29;20051;-47
2022/01/04 04:12:56;;;;;;;32.58;8.45;;;7.20;99.90;;;;;;4944758;29;20055;-49
2022/01/04 04:15:22;;;;;;;33.78;8.95;;;7.20;99.90;;;;;;4944192;29;20069;-48
2022/01/04 04:17:48;;;;;;;38.20;8.73;;;7.30;99.90;;;;;;4944397;29;20389;-48
2022/01/04 04:20:14;;;;;;;42.50;9.40;;;7.30;99.90;;;;;;4942428;29;20110;-48
2022/01/04 04:22:40;;;;;;;37.55;10.32;;;7.20;99.90;;;;;;4938036;29;20054;-47
2022/01/04 04:25:06;;;;;;;41.63;9.40;;;7.30;99.90;;;;;;4941594;28;20517;-47
2022/01/04 04:27:32;;;;;;;30.90;8.75;;;7.30;99.90;;;;;;4941657;28;20082;-48
2022/01/04 04:29:58;;;;;;;41.10;10.40;;;7.30;99.90;;;;;;4943369;28;20058;-48
2022/01/04 04:32:24;;;;;;;45.38;10.18;;;7.30;99.90;;;;;;4922960;29;20411;-48
2022/01/04 04:34:50;;;;;;;44.72;10.18;;;7.30;99.90;;;;;;4946307;28;20047;-48
2022/01/04 04:37:16;;;;;;;35.95;9.27;;;7.30;99.90;;;;;;4944057;28;20587;-48
2022/01/04 04:39:41;;;;;;;33.83;10.10;;;7.20;99.90;;;;;;4941997;28;20086;-48
2022/01/04 04:42:08;;;;;;;38.92;9.52;;;7.20;99.90;;;;;;4943108;28;20047;-48
2022/01/04 04:44:33;;;;;;;43.30;10.52;;;7.30;99.90;;;;;;4943546;28;20055;-49
2022/01/04 04:46:59;;;;;;;42.97;10.45;;;7.30;99.90;;;;;;4926992;29;20541;-49
2022/01/04 04:49:25;;;;;;;34.55;10.07;;;7.30;99.90;;;;;;4940923;28;20043;-48
2022/01/04 04:51:51;;;;;;;44.00;10.10;;;7.30;99.90;;;;;;4943937;28;20051;-48
2022/01/04 04:54:16;;;;;;;47.40;12.38;;;7.40;99.90;;;;;;4940527;28;20083;-49
2022/01/04 04:56:42;;;;;;;41.72;10.80;;;7.40;99.90;;;;;;4944678;28;20043;-52
2022/01/04 04:59:09;;;;;;;42.47;11.35;;;7.40;99.90;;;;;;4924277;29;20051;-49
2022/01/04 05:01:35;;;;;;;40.15;9.98;;;7.40;99.90;;;;;;4927259;29;20892;-50
2022/01/04 05:04:01;;;;;;;43.58;10.43;;;7.30;99.90;;;;;;4927359;29;20066;-54
2022/01/04 05:06:27;;;;;;;47.10;9.63;;;7.30;99.90;;;;;;4943861;29;20090;-50
2022/01/04 05:08:53;;;;;;;44.50;10.00;;;7.30;99.90;;;;;;4941080;29;20051;-47
2022/01/04 05:11:19;;;;;;;41.20;10.98;;;7.30;99.90;;;;;;4935596;29;20071;-47
2022/01/04 05:13:45;;;;;;;47.78;10.70;;;7.30;99.90;;;;;;4943689;29;20153;-48
2022/01/04 05:16:11;;;;;;;43.67;9.82;;;7.30;99.90;;;;;;4941785;28;20044;-48
2022/01/04 05:18:37;;;;;;;42.00;9.77;;;7.30;99.90;;;;;;4943376;28;20406;-48
2022/01/04 05:21:03;;;;;;;35.38;9.90;;;7.30;99.90;;;;;;4942217;28;20061;-48
2022/01/04 05:23:30;;;;;;;46.80;10.77;;;7.20;99.90;;;;;;4925464;28;20138;-48
2022/01/04 05:25:56;;;;;;;43.30;9.23;;;7.20;99.90;;;;;;4942955;28;20612;-51
2022/01/04 05:28:22;;;;;;;44.60;10.07;;;7.20;99.90;;;;;;4943773;28;20079;-48
2022/01/04 05:30:48;;;;;;;41.10;9.82;;;7.20;99.90;;;;;;4942912;28;20641;-48
2022/01/04 05:33:14;;;;;;;32.40;9.15;;;7.10;99.90;;;;;;4942843;28;20602;-48
2022/01/04 05:35:40;;;;;;;43.20;11.00;;;7.20;99.90;;;;;;4947969;28;20055;-49
2022/01/04 05:38:05;;;;;;;48.60;11.00;;;7.10;99.90;;;;;;4943527;29;20062;-49
2022/01/04 05:40:31;;;;;;;33.92;10.07;;;7.10;99.90;;;;;;4941739;29;20473;-50
2022/01/04 05:42:57;;;;;;;50.70;10.98;;;7.10;99.90;;;;;;4924161;29;20055;-47
2022/01/04 05:45:24;;;;;;;38.92;12.07;;;7.10;99.90;;;;;;4942697;29;20043;-48
2022/01/04 05:47:50;;;;;;;47.90;10.80;;;7.00;99.90;;;;;;4943916;29;20107;-48
2022/01/04 05:50:16;;;;;;;32.03;9.00;;;7.10;99.90;;;;;;4926628;29;20055;-48
2022/01/04 05:52:42;;;;;;;47.38;11.35;;;7.00;99.90;;;;;;4942918;29;20119;-48
2022/01/04 05:55:08;;;;;;;45.22;11.52;;;7.10;99.90;;;;;;4941172;29;20047;-50
2022/01/04 05:57:34;;;;;;;44.05;9.80;;;7.10;99.90;;;;;;4942061;29;20051;-49
2022/01/04 06:00:00;;;;;;;44.17;11.38;;;7.10;99.90;;;;;;4941851;28;20465;-49
2022/01/04 06:02:26;;;;;;;36.88;11.10;;;7.20;99.90;;;;;;4930179;29;20055;-48
2022/01/04 06:04:52;;;;;;;42.78;10.90;;;7.10;99.90;;;;;;4942792;29;20051;-48
2022/01/04 06:07:18;;;;;;;44.80;10.05;;;7.10;99.90;;;;;;4924397;29;20066;-50
2022/01/04 06:09:47;;;;;;;45.05;9.88;;;7.10;99.90;;;;;;4943388;29;20062;-48
2022/01/04 06:14:56;;;;;;;30.92;9.50;;;7.10;99.90;;;;;;4945953;28;20086;-51
2022/01/04 06:17:49;;;;;;;38.40;9.10;;;7.10;99.90;;;;;;4947645;29;20047;-55
2022/01/04 06:20:21;;;;;;;32.38;9.80;;;7.10;99.90;;;;;;4905326;29;20095;-50
2022/01/04 06:22:48;;;;;;;39.42;9.10;;;7.10;99.90;;;;;;4906052;29;20064;-47
2022/01/04 06:25:16;;;;;;;30.63;8.38;;;7.20;99.90;;;;;;4905826;29;20056;-47
2022/01/04 06:27:43;;;;;;;34.65;8.48;;;7.10;99.90;;;;;;4906124;29;20135;-48
2022/01/04 06:30:10;;;;;;;26.58;7.80;;;7.10;99.90;;;;;;4904715;29;20115;-48
2022/01/04 06:32:36;;;;;;;29.20;8.10;;;7.10;99.90;;;;;;4889756;29;20142;-48
2022/01/04 06:35:05;;;;;;;25.50;7.43;;;7.10;99.90;;;;;;4903730;29;20048;-47
2022/01/04 06:37:32;;;;;;;23.05;7.80;;;7.10;99.90;;;;;;4905166;29;20088;-49
2022/01/04 06:39:58;;;;;;;27.73;6.65;;;7.10;99.90;;;;;;4898550;29;20104;-47
2022/01/04 06:42:24;;;;;;;36.35;8.55;;;7.10;99.90;;;;;;4905087;29;20059;-48
2022/01/04 06:44:49;;;;;;;31.75;7.30;;;7.00;99.90;;;;;;4903707;29;20491;-48
2022/01/04 06:47:15;;;;;;;28.58;7.57;;;7.00;99.90;;;;;;4904460;29;20159;-48
2022/01/04 06:49:41;;;;;;;25.55;7.50;;;7.00;99.90;;;;;;4902780;29;20080;-50
2022/01/04 06:52:08;;;;;;;28.83;8.23;;;7.00;99.90;;;;;;4888257;29;20479;-48
2022/01/04 06:54:34;;;;;;;28.65;8.90;;;7.00;99.90;;;;;;4903921;29;20063;-48
2022/01/04 06:57:00;;;;;;;31.38;8.20;;;7.00;99.90;;;;;;4919120;29;20059;-50
2022/01/04 06:59:26;;;;;;;37.20;9.85;;;7.00;99.90;;;;;;4943206;28;20078;-49
2022/01/04 07:01:52;;;;;;;31.55;10.00;;;7.00;99.90;;;;;;4945348;29;20669;-48
2022/01/04 07:04:18;;;;;;;28.02;9.90;;;7.20;99.90;;;;;;4945770;28;20064;-48
2022/01/04 07:06:44;;;;;;;34.70;10.93;;;7.20;99.90;;;;;;4945054;29;20055;-47
2022/01/04 07:09:10;;;;;;;35.80;12.23;;;7.10;99.90;;;;;;4917152;29;20573;-48
2022/01/04 07:11:36;;;;;;;38.28;11.75;;;7.20;99.90;;;;;;4939687;29;20541;-48
2022/01/04 07:14:03;;;;;;;36.97;11.68;;;7.20;99.90;;;;;;4945803;29;20476;-50
2022/01/04 07:16:28;;;;;;;44.63;13.57;;;7.20;99.90;;;;;;4944808;29;20518;-47
2022/01/04 07:18:54;;;;;;;44.90;13.77;;;7.20;99.90;;;;;;4944689;29;20053;-50
2022/01/04 07:21:21;;;;;;;45.67;14.38;;;7.20;99.90;;;;;;4944876;29;20162;-48
2022/01/04 07:23:48;;;;;;;48.70;16.35;;;7.20;99.90;;;;;;4947320;29;20047;-51
2022/01/04 07:26:15;;;;;;;41.35;16.58;;;7.20;99.90;;;;;;4948325;28;20055;-49
2022/01/04 07:28:43;;;;;;;55.70;18.60;;;7.20;99.90;;;;;;4947474;29;20106;-50
2022/01/04 07:31:09;;;;;;;45.78;17.50;;;7.30;99.90;;;;;;4946229;29;20055;-50
2022/01/04 07:33:35;;;;;;;49.42;18.83;;;7.20;99.90;;;;;;4945943;29;20401;-48
2022/01/04 07:36:02;;;;;;;44.00;17.42;;;7.30;99.90;;;;;;4945052;29;20262;-48
2022/01/04 07:38:28;;;;;;;26.90;11.90;;;7.20;99.90;;;;;;4927944;29;20059;-49
2022/01/04 07:40:54;;;;;;;30.77;9.00;;;7.30;99.90;;;;;;4942965;29;20066;-47
2022/01/04 07:43:20;;;;;;;24.58;6.75;;;7.30;99.90;;;;;;4944924;29;20533;-50
2022/01/04 07:45:46;;;;;;;16.15;5.18;;;7.20;99.90;;;;;;4944400;29;20075;-50
2022/01/04 07:48:11;;;;;;;10.27;3.38;;;7.10;99.90;;;;;;4944757;29;20055;-48
2022/01/04 07:50:39;;;;;;;10.90;3.10;;;7.10;99.90;;;;;;4944391;29;20051;-48
2022/01/04 07:53:06;;;;;;;13.77;3.60;;;7.00;99.90;;;;;;4927206;29;20043;-48
2022/01/04 07:55:35;;;;;;;14.57;3.80;;;7.00;99.90;;;;;;4911403;29;20055;-49
2022/01/04 07:58:01;;;;;;;13.15;3.80;;;6.90;99.90;;;;;;4944705;29;20105;-51
2022/01/04 08:00:28;;;;;;;11.95;4.07;;;6.90;99.90;;;;;;4926259;29;20641;-51
2022/01/04 08:02:54;;;;;;;11.65;4.82;;;6.80;99.90;;;;;;4945342;29;20054;-49
2022/01/04 08:05:22;;;;;;;15.93;5.03;;;6.80;99.90;;;;;;4945215;29;20073;-47
2022/01/04 08:07:49;;;;;;;10.20;4.20;;;6.80;99.90;;;;;;4945159;29;20123;-47
2022/01/04 08:10:15;;;;;;;17.00;4.05;;;6.80;99.90;;;;;;4926918;29;20089;-50
2022/01/04 08:12:40;;;;;;;12.93;4.20;;;6.80;99.90;;;;;;4945357;29;20055;-49
2022/01/04 08:15:08;;;;;;;11.05;3.78;;;6.80;99.90;;;;;;4942091;29;20551;-48
2022/01/04 08:17:36;;;;;;;17.88;3.97;;;6.80;99.90;;;;;;4939323;29;20494;-48
2022/01/04 08:20:06;;;;;;;13.35;4.30;;;6.80;99.90;;;;;;4905393;29;20113;-51
2022/01/04 08:22:33;;;;;;;11.88;4.60;;;6.80;99.90;;;;;;4931281;29;20047;-48
2022/01/04 08:25:01;;;;;;;15.68;3.42;;;6.70;99.90;;;;;;4911062;29;20066;-50
2022/01/04 08:27:27;;;;;;;15.20;2.92;;;6.70;99.90;;;;;;4936313;29;20051;-49
2022/01/04 08:29:53;;;;;;;10.90;2.95;;;6.70;99.90;;;;;;4927976;29;20050;-48
2022/01/04 08:32:19;;;;;;;12.18;2.50;;;6.70;99.90;;;;;;4943267;28;20051;-50
2022/01/04 08:34:45;;;;;;;13.90;3.13;;;6.70;99.90;;;;;;4938979;28;20629;-49
2022/01/04 08:37:11;;;;;;;14.95;3.28;;;6.70;99.90;;;;;;4936743;29;20090;-48
2022/01/04 08:39:37;;;;;;;11.52;2.63;;;6.60;99.90;;;;;;4941309;29;20050;-48
2022/01/04 08:42:03;;;;;;;16.23;3.80;;;6.60;99.90;;;;;;4941910;29;20880;-53
2022/01/04 08:44:30;;;;;;;14.57;3.45;;;6.60;99.90;;;;;;4941632;29;20051;-54
2022/01/04 08:46:55;;;;;;;16.15;5.43;;;6.70;99.90;;;;;;4924367;29;20051;-51
2022/01/04 08:49:21;;;;;;;13.23;4.35;;;6.60;99.90;;;;;;4942786;28;20058;-49
2022/01/04 08:51:48;;;;;;;21.08;4.88;;;6.70;99.90;;;;;;4943542;28;20058;-49
2022/01/04 08:54:14;;;;;;;15.02;4.72;;;6.60;99.90;;;;;;4941910;28;20601;-49
2022/01/04 08:56:41;;;;;;;15.13;4.75;;;6.70;99.90;;;;;;4931882;28;20094;-49
2022/01/04 08:59:08;;;;;;;20.05;5.20;;;6.80;99.90;;;;;;4944414;28;20050;-49
2022/01/04 09:01:35;;;;;;;18.02;5.75;;;6.80;99.90;;;;;;4925771;29;20066;-48
2022/01/04 09:04:01;;;;;;;20.77;4.80;;;6.80;99.90;;;;;;4943819;28;20075;-48
2022/01/04 09:06:28;;;;;;;18.90;4.65;;;6.90;99.90;;;;;;4923717;29;20054;-48
2022/01/04 09:08:57;;;;;;;16.65;4.43;;;6.80;99.90;;;;;;4941495;29;20050;-51
2022/01/04 09:11:24;;;;;;;19.05;3.80;;;6.90;99.90;;;;;;4934175;29;20061;-52
2022/01/04 09:13:54;;;;;;;17.75;4.50;;;6.90;99.90;;;;;;4941675;29;20134;-49
2022/01/04 09:19:04;;;;;;;16.08;3.67;;;6.90;99.90;;;;;;4939121;29;20055;-49
2022/01/04 09:21:30;;;;;;;15.43;2.88;;;7.00;99.90;;;;;;4934575;29;20047;-52
2022/01/04 09:24:01;;;;;;;14.35;2.65;;;7.00;99.90;;;;;;4936620;28;20121;-50
2022/01/04 09:26:28;;;;;;;15.57;2.80;;;7.00;99.90;;;;;;4934084;28;20043;-48
2022/01/04 09:28:55;;;;;;;11.00;2.05;;;7.00;99.90;;;;;;4909042;29;20062;-50
2022/01/04 09:31:22;;;;;;;8.90;1.70;;;7.00;99.90;;;;;;4938921;28;20050;-48
2022/01/04 09:33:50;;;;;;;9.68;1.52;;;7.00;99.90;;;;;;4941581;28;20649;-49
2022/01/04 09:36:16;;;;;;;6.35;1.30;;;7.00;99.90;;;;;;4941247;28;20781;-46
2022/01/04 09:38:42;;;;;;;5.38;1.40;;;7.00;99.90;;;;;;4940691;28;20059;-46
2022/01/04 09:41:08;;;;;;;4.20;1.33;;;6.90;99.90;;;;;;4939740;28;20055;-45
2022/01/04 09:43:33;;;;;;;7.13;1.17;;;6.90;99.90;;;;;;4935925;28;20086;-46
2022/01/04 09:46:00;;;;;;;7.72;1.23;;;6.80;99.90;;;;;;4922069;29;20063;-45
2022/01/04 09:48:26;;;;;;;4.13;1.10;;;6.80;99.90;;;;;;4938761;28;20975;-46
2022/01/04 09:50:57;;;;;;;5.22;1.27;;;6.80;99.90;;;;;;4940483;28;20051;-48
2022/01/04 09:53:24;;;;;;;5.95;1.13;;;6.80;99.90;;;;;;4947594;28;20063;-47
2022/01/04 09:55:51;;;;;;;3.20;1.13;;;6.90;99.90;;;;;;4929319;29;20589;-45
2022/01/04 09:58:19;;;;;;;6.05;1.00;;;6.80;99.90;;;;;;4946839;28;20066;-50
2022/01/04 10:00:45;;;;;;;7.32;1.40;;;6.80;99.90;;;;;;4928556;29;20102;-49
2022/01/04 10:03:25;;;;;;;5.85;1.33;;;6.80;99.90;;;;;;4946321;29;20043;-45
2022/01/04 10:06:17;;;;;;;5.38;1.52;;;6.70;99.90;;;;;;4926586;29;20083;-46
2022/01/04 10:09:04;;;;;;;6.28;1.58;;;6.70;99.90;;;;;;4929399;29;20086;-48
2022/01/04 10:11:43;;;;;;;7.78;1.88;;;6.70;99.90;;;;;;4945047;29;20359;-47
2022/01/04 10:14:29;;;;;;;8.70;1.85;;;6.70;99.90;;;;;;4928668;29;20613;-48
2022/01/04 10:16:57;;;;;;;8.77;2.13;;;6.60;99.90;;;;;;4928266;29;20564;-47
2022/01/04 10:19:36;;;;;;;8.80;2.30;;;6.50;99.90;;;;;;4945556;29;20055;-46
2022/01/04 10:22:23;;;;;;;4.95;2.03;;;6.50;99.90;;;;;;4924615;29;20060;-46
2022/01/04 10:25:00;;;;;;;8.90;4.13;;;6.50;99.90;;;;;;4939007;29;20047;-47
2022/01/04 10:27:36;;;;;;;5.32;2.22;;;6.50;99.90;;;;;;4925133;29;20105;-45
2022/01/04 10:30:23;;;;;;;5.75;2.47;;;6.30;99.90;;;;;;4944474;29;20058;-46
2022/01/04 10:32:52;;;;;;;5.47;2.55;;;6.30;99.90;;;;;;4945447;29;20472;-46
2022/01/04 10:35:22;;;;;;;5.80;2.47;;;6.20;99.90;;;;;;4951206;28;20066;-45
2022/01/04 10:37:47;;;;;;;6.07;1.88;;;6.20;99.90;;;;;;4945177;28;20039;-45
2022/01/04 10:40:13;;;;;;;4.95;1.45;;;6.10;99.90;;;;;;4945627;29;20051;-46
2022/01/04 10:42:40;;;;;;;4.57;0.70;;;6.10;99.90;;;;;;4945664;29;20054;-45
2022/01/04 10:45:29;;;;;;;5.40;0.90;;;6.00;99.90;;;;;;4934795;29;20418;-46
2022/01/04 10:48:07;;;;;;;2.78;0.95;;;6.00;99.90;;;;;;4928105;29;20478;-46
2022/01/04 10:50:35;;;;;;;3.03;1.27;;;5.90;99.90;;;;;;4946032;29;20043;-47
2022/01/04 10:53:02;;;;;;;5.13;1.00;;;6.00;99.90;;;;;;4945605;29;20462;-47
2022/01/04 10:55:36;;;;;;;6.30;0.80;;;5.90;99.90;;;;;;4923779;29;20055;-48
2022/01/04 10:58:03;;;;;;;1.95;0.70;;;5.90;99.90;;;;;;4935846;29;20133;-45
2022/01/04 11:00:31;;;;;;;4.75;0.90;;;5.90;99.90;;;;;;4916599;29;20070;-48
2022/01/04 11:02:58;;;;;;;4.22;0.73;;;5.90;99.90;;;;;;4946476;28;20073;-46
2022/01/04 11:05:25;;;;;;;4.30;0.82;;;5.90;99.90;;;;;;4928648;29;20050;-49
2022/01/04 11:08:00;;;;;;;8.85;1.38;;;5.70;99.90;;;;;;4948560;28;20042;-47
2022/01/04 11:10:32;;;;;;;5.38;0.80;;;5.50;99.90;;;;;;4946670;28;20893;-48
2022/01/04 11:13:04;;;;;;;10.00;1.17;;;5.50;99.90;;;;;;4943601;28;20065;-46
2022/01/04 11:15:31;;;;;;;7.20;1.20;;;5.30;99.90;;;;;;4944093;28;20089;-47
2022/01/04 11:17:57;;;;;;;5.63;1.40;;;5.30;99.90;;;;;;4928353;29;20077;-45
2022/01/04 11:20:23;;;;;;;9.98;1.95;;;5.30;99.90;;;;;;4944534;28;20059;-45
2022/01/04 11:22:50;;;;;;;9.98;1.58;;;5.40;99.90;;;;;;4945813;29;20057;-45
2022/01/04 11:25:21;;;;;;;5.72;1.27;;;5.40;99.90;;;;;;4944822;28;20078;-47
2022/01/04 11:27:48;;;;;;;5.07;0.90;;;5.50;99.90;;;;;;4945218;28;20446;-47
2022/01/04 11:30:21;;;;;;;8.27;0.95;;;5.60;99.90;;;;;;4943637;28;20090;-47
2022/01/04 11:32:52;;;;;;;5.05;0.85;;;5.60;99.90;;;;;;4921808;29;20047;-46
2022/01/04 11:35:21;;;;;;;5.45;1.20;;;5.70;99.90;;;;;;4947783;28;20055;-46
2022/01/04 11:37:53;;;;;;;8.93;1.52;;;5.70;99.90;;;;;;4923652;28;20162;-48
2022/01/04 11:40:23;;;;;;;6.75;1.00;;;5.70;99.90;;;;;;4943542;28;20059;-45
2022/01/04 11:42:48;;;;;;;6.60;1.27;;;5.80;99.90;;;;;;4944079;28;20644;-46
2022/01/04 11:45:16;;;;;;;10.23;1.10;;;5.80;99.90;;;;;;4926342;29;20051;-46
2022/01/04 11:47:48;;;;;;;6.38;1.25;;;5.90;99.90;;;;;;4944509;28;20051;-47
2022/01/04 11:50:20;;;;;;;5.15;1.05;;;5.90;99.90;;;;;;4933848;28;20197;-47
2022/01/04 11:52:50;;;;;;;8.35;1.15;;;6.00;99.90;;;;;;4925166;28;20155;-46
2022/01/04 11:55:24;;;;;;;5.95;0.90;;;6.10;99.90;;;;;;4942219;28;20159;-45
2022/01/04 11:58:02;;;;;;;12.35;1.95;;;6.10;99.90;;;;;;4943755;28;20099;-46
2022/01/04 12:00:40;;;;;;;4.40;1.05;;;6.20;99.90;;;;;;4921610;29;20059;-45
2022/01/04 12:03:14;;;;;;;8.02;1.00;;;6.20;99.90;;;;;;4929509;29;20062;-47
2022/01/04 12:06:01;;;;;;;5.43;1.20;;;6.30;99.90;;;;;;4925918;29;20091;-49
2022/01/04 12:08:52;;;;;;;5.35;1.25;;;6.30;99.90;;;;;;4921472;29;20450;-46
2022/01/04 12:11:26;;;;;;;5.60;1.10;;;6.30;99.90;;;;;;4925719;28;20079;-46
2022/01/04 12:13:58;;;;;;;9.32;1.48;;;6.30;99.90;;;;;;4941733;28;20047;-46
2022/01/04 12:16:44;;;;;;;7.90;0.90;;;6.40;99.90;;;;;;4926963;29;20097;-46
2022/01/04 12:19:11;;;;;;;4.95;1.20;;;6.30;99.90;;;;;;4917311;29;20519;-46
2022/01/04 12:21:40;;;;;;;9.13;1.58;;;6.40;99.90;;;;;;4947782;28;20055;-49
2022/01/04 12:24:08;;;;;;;6.97;1.17;;;6.30;99.90;;;;;;4944759;28;20047;-48
2022/01/04 12:26:35;;;;;;;8.35;1.30;;;6.30;99.90;;;;;;4944278;28;20058;-49
2022/01/04 12:29:10;;;;;;;8.80;1.20;;;6.30;99.90;;;;;;4926924;29;20063;-49
2022/01/04 12:31:48;;;;;;;13.20;2.03;;;6.40;99.90;;;;;;4924955;28;20406;-46
2022/01/04 12:34:27;;;;;;;6.05;1.73;;;6.40;99.90;;;;;;4942658;28;20076;-45
2022/01/04 12:36:53;;;;;;;6.68;1.40;;;6.40;99.90;;;;;;4926615;29;20059;-46
2022/01/04 12:39:31;;;;;;;7.88;1.10;;;6.40;99.90;;;;;;4925419;29;20066;-47
2022/01/04 12:41:57;;;;;;;7.78;1.08;;;6.40;99.90;;;;;;4934137;28;20526;-45
2022/01/04 12:44:30;;;;;;;7.55;1.85;;;6.40;99.90;;;;;;4942513;28;20055;-46
2022/01/04 12:46:57;;;;;;;9.75;1.63;;;6.40;99.90;;;;;;4943925;28;20102;-48
2022/01/04 12:49:25;;;;;;;7.07;1.35;;;6.30;99.90;;;;;;4943258;28;20507;-46
2022/01/04 12:51:53;;;;;;;8.30;1.30;;;6.20;99.90;;;;;;4942857;28;20505;-46
2022/01/04 12:54:26;;;;;;;6.57;1.23;;;6.20;99.90;;;;;;4924185;28;20437;-46
2022/01/04 12:56:56;;;;;;;7.80;1.20;;;6.20;99.90;;;;;;4937170;28;20065;-45
2022/01/04 12:59:24;;;;;;;8.05;1.67;;;6.10;99.90;;;;;;4923755;29;20098;-47